Time;durP1;ratioP1;P1;durP2;ratioP2;P2;SDS_P1;SDS_P2;PMS_P1;PMS_P2;Temp;Humidity;BMP_temperature;BMP_pressure;BME280_temperature;BME280_humidity;BME280_pressure;Samples;Min_cycle;Max_cycle;Signal;HPM_P1;HPM_P2
2023/05/08 00:01:53;;;;;;;6.90;1.20;;;;;;;21.98;41.64;96574.69;5034526;28;20022;-33
2023/05/08 00:04:19;;;;;;;2.90;1.13;;;;;;;21.83;42.19;96570.13;5041756;28;20388;-33
2023/05/08 00:06:46;;;;;;;1.30;1.10;;;;;;;21.97;41.70;96567.66;5034200;28;20079;-33
2023/05/08 00:09:12;;;;;;;1.27;0.93;;;;;;;21.88;41.88;96562.38;5034202;28;20432;-34
2023/05/08 00:11:38;;;;;;;1.88;1.08;;;;;;;21.93;41.28;96569.91;5033762;28;20067;-33
2023/05/08 00:14:04;;;;;;;1.63;1.13;;;;;;;22.01;40.65;96570.94;5034186;28;20096;-33
2023/05/08 00:16:30;;;;;;;2.25;1.30;;;;;;;21.92;41.28;96565.63;5033920;28;20051;-33
2023/05/08 00:18:56;;;;;;;1.42;1.02;;;;;;;21.96;41.71;96574.44;5034048;28;20114;-33
2023/05/08 00:21:21;;;;;;;1.95;1.30;;;;;;;22.00;41.70;96561.94;5033842;28;20053;-33
2023/05/08 00:23:47;;;;;;;2.28;1.25;;;;;;;21.84;42.01;96565.38;5033792;28;20032;-33
2023/05/08 00:26:12;;;;;;;1.75;1.40;;;;;;;21.87;42.79;96569.91;5033801;28;20481;-33
2023/05/08 00:28:38;;;;;;;2.80;1.38;;;;;;;21.91;42.63;96575.91;5033868;28;20021;-33
2023/05/08 00:31:03;;;;;;;1.58;1.40;;;;;;;21.80;43.24;96573.13;5033924;28;20368;-34
2023/05/08 00:33:28;;;;;;;1.60;1.27;;;;;;;21.77;43.52;96572.13;5033825;28;20021;-34
2023/05/08 00:36:00;;;;;;;2.28;1.15;;;;;;;21.95;43.00;96581.22;5041051;28;20033;-34
2023/05/08 00:38:25;;;;;;;3.50;1.30;;;;;;;21.80;43.38;96576.66;5033844;28;20030;-33
2023/05/08 00:40:51;;;;;;;2.78;1.48;;;;;;;21.79;43.55;96579.91;5033455;28;20021;-34
2023/05/08 00:43:16;;;;;;;2.33;1.30;;;;;;;21.58;43.87;96576.56;5033639;28;20112;-33
2023/05/08 00:45:42;;;;;;;2.78;1.27;;;;;;;21.84;43.80;96565.38;5034130;28;20038;-33
2023/05/08 00:48:07;;;;;;;1.73;1.40;;;;;;;21.90;43.32;96565.38;5033575;28;20025;-34
2023/05/08 00:50:35;;;;;;;1.48;1.17;;;;;;;21.85;43.36;96573.16;5033601;28;20025;-34
2023/05/08 00:53:02;;;;;;;2.67;1.77;;;;;;;21.66;43.82;96560.28;5033355;28;20033;-33
2023/05/08 00:55:29;;;;;;;1.92;1.38;;;;;;;21.63;43.58;96567.56;5033266;28;20120;-33
2023/05/08 00:57:55;;;;;;;1.60;1.30;;;;;;;21.84;43.10;96574.41;5033286;28;20021;-33
2023/05/08 01:00:22;;;;;;;3.63;1.60;;;;;;;21.81;42.66;96561.59;5033361;28;20128;-33
2023/05/08 01:02:47;;;;;;;2.83;1.40;;;;;;;21.65;43.09;96559.53;5036782;28;20024;-33
2023/05/08 01:05:13;;;;;;;1.60;1.25;;;;;;;21.78;43.03;96559.81;5048418;28;20031;-34
2023/05/08 01:07:38;;;;;;;3.90;1.40;;;;;;;21.82;43.07;96557.59;5033326;28;20083;-33
2023/05/08 01:10:05;;;;;;;3.58;1.65;;;;;;;21.78;43.23;96553.53;5033146;28;20068;-35
2023/05/08 01:12:33;;;;;;;1.90;1.70;;;;;;;21.90;42.80;96557.09;5033612;28;20029;-33
2023/05/08 01:15:13;;;;;;;1.67;1.15;;;;;;;21.84;42.96;96549.56;5033443;28;20517;-34
2023/05/08 01:18:12;;;;;;;2.05;1.20;;;;;;;21.88;43.05;96554.09;5040794;28;20033;-33
2023/05/08 01:20:50;;;;;;;1.63;1.25;;;;;;;21.91;42.60;96553.84;5032432;28;20025;-33
2023/05/08 01:23:34;;;;;;;2.75;1.30;;;;;;;21.88;42.55;96554.09;5032828;28;20060;-33
2023/05/08 01:26:36;;;;;;;1.88;1.02;;;;;;;21.88;42.78;96558.34;5033037;28;20039;-34
2023/05/08 01:29:07;;;;;;;1.42;1.30;;;;;;;21.77;42.36;96554.78;5033057;28;20032;-33
2023/05/08 01:31:35;;;;;;;1.67;1.23;;;;;;;21.88;41.63;96556.84;5033095;28;20381;-34
2023/05/08 01:34:16;;;;;;;2.28;1.00;;;;;;;21.85;41.46;96564.13;5033065;28;20014;-33
2023/05/08 01:36:54;;;;;;;1.38;1.10;;;;;;;21.83;41.42;96559.09;5033136;28;20125;-33
2023/05/08 01:39:43;;;;;;;1.23;1.00;;;;;;;21.90;40.90;96562.59;5032664;28;20037;-33
2023/05/08 01:42:17;;;;;;;1.30;1.10;;;;;;;21.82;40.90;96563.09;5041492;28;20037;-33
2023/05/08 01:44:50;;;;;;;1.52;0.90;;;;;;;21.82;40.43;96562.34;5034042;28;20021;-33
2023/05/08 01:47:19;;;;;;;1.45;1.08;;;;;;;21.67;40.21;96561.78;5033138;28;20056;-33
2023/05/08 01:49:49;;;;;;;1.48;1.00;;;;;;;21.91;39.33;96555.84;5032766;28;20112;-34
2023/05/08 01:52:20;;;;;;;1.27;1.10;;;;;;;21.67;39.75;96557.03;5040559;28;20078;-33
2023/05/08 01:54:58;;;;;;;1.73;1.00;;;;;;;21.64;39.32;96549.75;5032759;28;20042;-33
2023/05/08 01:57:27;;;;;;;2.45;1.02;;;;;;;21.86;39.34;96547.06;5032837;28;20059;-33
2023/05/08 01:59:56;;;;;;;1.27;1.00;;;;;;;21.95;39.18;96542.56;5031552;28;20037;-33
2023/05/08 02:02:23;;;;;;;1.65;1.17;;;;;;;21.75;38.80;96543.53;5039691;28;20599;-33
2023/05/08 02:04:50;;;;;;;1.23;0.85;;;;;;;21.84;38.53;96533.00;5039882;28;20389;-33
2023/05/08 02:07:17;;;;;;;0.80;0.70;;;;;;;21.69;38.67;96542.72;5032950;28;20033;-34
2023/05/08 02:09:43;;;;;;;0.80;0.70;;;;;;;21.76;38.36;96537.47;5032742;28;20030;-33
2023/05/08 02:12:11;;;;;;;1.45;0.80;;;;;;;21.78;38.61;96537.75;5032504;28;20025;-33
2023/05/08 02:14:38;;;;;;;1.35;0.90;;;;;;;21.74;39.28;96528.97;5039652;28;20051;-33
2023/05/08 02:17:08;;;;;;;1.10;0.90;;;;;;;21.78;39.10;96528.69;5032580;28;20025;-35
2023/05/08 02:19:37;;;;;;;1.23;0.90;;;;;;;21.74;39.50;96533.72;5031369;28;20025;-33
2023/05/08 02:22:04;;;;;;;1.02;0.93;;;;;;;21.84;39.79;96533.00;5033156;28;20036;-33
2023/05/08 02:24:32;;;;;;;4.32;1.05;;;;;;;21.60;39.85;96527.16;5032400;28;20481;-33
2023/05/08 02:26:59;;;;;;;1.65;1.02;;;;;;;21.59;39.96;96533.94;5032168;28;20041;-34
2023/05/08 02:29:26;;;;;;;1.77;0.98;;;;;;;21.76;40.11;96529.19;5032515;28;20377;-34
2023/05/08 02:31:53;;;;;;;2.28;1.10;;;;;;;21.61;40.40;96519.63;5033987;28;20476;-33
2023/05/08 02:34:20;;;;;;;1.17;1.00;;;;;;;21.53;40.62;96513.81;5035912;28;20457;-33
2023/05/08 02:36:49;;;;;;;1.15;0.80;;;;;;;21.42;40.94;96513.78;5036778;28;20039;-33
2023/05/08 02:39:18;;;;;;;2.17;1.38;;;;;;;21.67;40.79;96512.88;5041883;28;20496;-33
2023/05/08 02:41:44;;;;;;;1.77;1.40;;;;;;;21.65;40.95;96507.09;5035544;28;20021;-33
2023/05/08 02:44:10;;;;;;;1.40;1.30;;;;;;;21.59;41.65;96514.63;5035986;28;20087;-33
2023/05/08 02:46:54;;;;;;;2.47;1.40;;;;;;;21.46;42.14;96509.56;5036082;28;20035;-33
2023/05/08 02:50:01;;;;;;;3.20;1.17;;;;;;;21.70;41.60;96511.88;5035752;28;20028;-34
2023/05/08 02:52:28;;;;;;;3.30;1.20;;;;;;;21.82;41.21;96518.19;5029958;28;20052;-35
2023/05/08 02:55:02;;;;;;;1.83;1.45;;;;;;;21.49;42.18;96513.34;5052067;28;20075;-33
2023/05/08 02:57:45;;;;;;;2.10;1.15;;;;;;;21.45;42.67;96518.31;5045853;28;20067;-33
2023/05/08 03:00:17;;;;;;;1.70;1.10;;;;;;;21.45;42.73;96512.81;5051824;28;20033;-33
2023/05/08 03:02:52;;;;;;;2.92;1.63;;;;;;;21.66;42.79;96516.13;5052436;28;20032;-33
2023/05/08 03:05:29;;;;;;;1.92;1.23;;;;;;;21.62;43.34;96513.63;5034255;28;20033;-35
2023/05/08 03:07:59;;;;;;;2.88;1.70;;;;;;;21.62;43.52;96519.16;5052497;28;20021;-35
2023/05/08 03:10:30;;;;;;;2.42;1.50;;;;;;;21.42;44.24;96519.31;5051678;28;20049;-34
2023/05/08 03:12:57;;;;;;;2.00;1.80;;;;;;;21.51;44.00;96508.81;5051965;28;20508;-33
2023/05/08 03:15:28;;;;;;;3.55;1.55;;;;;;;21.54;44.47;96515.34;5051960;28;20071;-33
2023/05/08 03:18:05;;;;;;;1.75;1.60;;;;;;;21.28;45.12;96514.72;5035696;28;20071;-33
2023/05/08 03:20:36;;;;;;;2.72;1.60;;;;;;;21.39;45.14;96509.25;5052134;28;20111;-33
2023/05/08 03:23:03;;;;;;;1.90;1.50;;;;;;;21.54;44.61;96518.09;5035905;28;20033;-34
2023/05/08 03:25:29;;;;;;;2.22;1.48;;;;;;;21.34;44.89;96512.75;5034715;28;20465;-33
2023/05/08 03:27:57;;;;;;;3.75;1.70;;;;;;;21.36;44.96;96508.28;5035191;28;20021;-33
2023/05/08 03:30:24;;;;;;;2.58;1.70;;;;;;;21.34;44.49;96502.50;5035143;28;20811;-33
2023/05/08 03:32:51;;;;;;;1.83;1.30;;;;;;;21.44;44.31;96500.25;5034619;28;20069;-33
2023/05/08 03:35:18;;;;;;;2.90;1.40;;;;;;;21.38;43.72;96499.50;5034816;28;20013;-33
2023/05/08 03:37:43;;;;;;;1.83;1.63;;;;;;;21.60;43.20;96513.38;5034865;28;20029;-33
2023/05/08 03:40:09;;;;;;;2.13;1.45;;;;;;;21.35;43.08;96503.25;5036930;28;20480;-33
2023/05/08 03:42:36;;;;;;;2.85;1.60;;;;;;;21.28;43.33;96503.69;5044779;28;20052;-33
2023/05/08 03:45:02;;;;;;;2.42;1.50;;;;;;;21.44;43.18;96503.03;5035488;28;20025;-33
2023/05/08 03:47:28;;;;;;;1.60;1.33;;;;;;;21.53;43.67;96500.03;5034702;28;20057;-33
2023/05/08 03:49:54;;;;;;;2.60;2.00;;;;;;;21.49;43.60;96494.78;5034256;28;20061;-33
2023/05/08 03:52:19;;;;;;;1.90;1.60;;;;;;;21.47;44.08;96502.03;5034768;28;20034;-33
2023/05/08 03:54:45;;;;;;;2.30;1.90;;;;;;;21.41;43.82;96498.50;5033995;28;20041;-33
2023/05/08 03:57:11;;;;;;;4.22;2.08;;;;;;;21.11;44.19;96492.59;5034484;28;22006;-33
2023/05/08 03:59:51;;;;;;;2.67;2.10;;;;;;;21.25;43.94;96488.16;5034579;28;20384;-33
2023/05/08 04:02:27;;;;;;;2.40;1.80;;;;;;;21.16;44.24;96489.84;5034532;28;20067;-33
2023/05/08 04:05:01;;;;;;;2.28;1.77;;;;;;;21.24;44.26;96478.38;5041319;28;20086;-33
2023/05/08 04:07:37;;;;;;;2.45;2.00;;;;;;;21.19;44.28;96488.13;5034909;28;20025;-33
2023/05/08 04:10:30;;;;;;;3.00;1.88;;;;;;;20.91;44.91;96485.22;5034583;28;20124;-33
2023/05/08 04:13:01;;;;;;;3.10;1.80;;;;;;;21.07;44.79;96492.81;5034199;28;20027;-34
2023/05/08 04:15:30;;;;;;;4.50;1.95;;;;;;;20.96;45.30;96490.00;5033993;28;20025;-33
2023/05/08 04:18:01;;;;;;;2.30;1.85;;;;;;;21.26;44.97;96487.66;5032919;28;20432;-33
2023/05/08 04:20:28;;;;;;;3.17;1.80;;;;;;;21.17;44.96;96485.84;5033860;28;20025;-34
2023/05/08 04:23:03;;;;;;;2.30;1.65;;;;;;;21.14;45.24;96484.06;5034155;28;20026;-34
2023/05/08 04:25:31;;;;;;;2.60;1.95;;;;;;;21.33;45.11;96480.91;5034159;28;20017;-34
2023/05/08 04:27:57;;;;;;;2.53;1.88;;;;;;;21.37;44.98;96484.19;5039626;28;20385;-34
2023/05/08 04:30:23;;;;;;;5.25;2.05;;;;;;;21.37;44.82;96492.47;5033541;28;20017;-33
2023/05/08 04:32:49;;;;;;;2.42;1.55;;;;;;;21.37;44.65;96490.47;5033717;28;21116;-33
2023/05/08 04:35:15;;;;;;;3.72;2.05;;;;;;;21.04;45.35;96493.03;5033967;28;20021;-33
2023/05/08 04:37:42;;;;;;;2.97;1.58;;;;;;;21.03;45.64;96497.03;5033812;28;20026;-33
2023/05/08 04:40:09;;;;;;;2.53;1.92;;;;;;;21.33;45.13;96500.22;5032354;28;20108;-33
2023/05/08 04:42:35;;;;;;;3.65;1.88;;;;;;;21.34;44.62;96512.75;5033588;28;20112;-34
2023/05/08 04:45:01;;;;;;;4.25;2.15;;;;;;;21.24;44.94;96522.50;5033955;28;20392;-33
2023/05/08 04:47:26;;;;;;;2.33;1.80;;;;;;;21.19;45.14;96512.94;5033910;28;20021;-33
2023/05/08 04:49:52;;;;;;;3.00;1.70;;;;;;;21.16;45.17;96522.94;5033403;28;20036;-33
2023/05/08 04:52:17;;;;;;;2.83;2.00;;;;;;;21.35;44.79;96520.56;5033688;28;20025;-35
2023/05/08 04:54:43;;;;;;;2.53;1.80;;;;;;;21.27;44.84;96502.94;5032471;28;20443;-33
2023/05/08 04:57:08;;;;;;;2.92;1.95;;;;;;;21.27;44.83;96510.47;5033539;28;20330;-33
2023/05/08 04:59:34;;;;;;;3.63;1.88;;;;;;;21.08;45.43;96513.63;5033282;28;20021;-33
2023/05/08 05:02:01;;;;;;;3.40;2.05;;;;;;;21.04;45.95;96506.81;5033629;28;20488;-34
2023/05/08 05:04:27;;;;;;;3.05;2.10;;;;;;;21.32;45.51;96506.97;5047754;28;20033;-33
2023/05/08 05:06:52;;;;;;;3.63;2.00;;;;;;;21.36;45.37;96500.00;5033304;28;20057;-33
2023/05/08 05:09:18;;;;;;;4.32;2.30;;;;;;;21.28;45.54;96501.69;5044131;28;20122;-34
2023/05/08 05:11:43;;;;;;;2.65;2.15;;;;;;;21.32;45.79;96493.94;5033031;28;20021;-34
2023/05/08 05:14:09;;;;;;;2.75;2.33;;;;;;;21.38;45.73;96496.75;5032934;28;20527;-34
2023/05/08 05:16:34;;;;;;;3.72;2.30;;;;;;;21.55;45.43;96486.50;5033238;28;20388;-33
2023/05/08 05:19:00;;;;;;;3.45;1.98;;;;;;;21.37;45.57;96489.72;5033805;28;20380;-33
2023/05/08 05:21:27;;;;;;;5.47;2.33;;;;;;;21.39;45.70;96495.47;5031468;28;20396;-33
2023/05/08 05:23:52;;;;;;;3.55;2.17;;;;;;;21.21;46.03;96493.91;5033243;28;20122;-33
2023/05/08 05:26:18;;;;;;;6.47;3.42;;;;;;;21.45;45.58;96493.50;5033216;28;20030;-33
2023/05/08 05:28:44;;;;;;;6.28;2.20;;;;;;;21.34;45.96;96490.69;5032582;28;20119;-35
2023/05/08 05:31:09;;;;;;;4.43;2.50;;;;;;;21.32;45.88;96487.69;5033042;28;20021;-33
2023/05/08 05:33:35;;;;;;;3.50;1.90;;;;;;;21.46;45.57;96486.72;5033110;28;20469;-33
2023/05/08 05:36:01;;;;;;;5.10;1.98;;;;;;;21.30;45.86;96490.16;5032662;28;20032;-34
2023/05/08 05:38:26;;;;;;;2.85;1.98;;;;;;;21.58;45.25;96493.03;5032864;28;20091;-35
2023/05/08 05:40:52;;;;;;;2.40;1.70;;;;;;;21.54;45.03;96487.00;5034639;28;20044;-33
2023/05/08 05:43:17;;;;;;;2.17;1.80;;;;;;;21.52;45.20;96487.47;5033008;28;20039;-33
2023/05/08 05:45:42;;;;;;;2.88;1.63;;;;;;;21.52;45.13;96495.75;5033244;28;20491;-34
2023/05/08 05:48:08;;;;;;;3.45;1.60;;;;;;;21.61;44.93;96490.03;5033019;28;20021;-33
2023/05/08 05:50:36;;;;;;;2.60;1.48;;;;;;;21.57;44.99;96497.78;5032802;28;20056;-34
2023/05/08 05:53:02;;;;;;;1.63;1.50;;;;;;;21.64;44.34;96500.06;5032773;28;20038;-33
2023/05/08 05:55:27;;;;;;;4.18;2.30;;;;;;;21.32;45.95;96495.94;5032582;28;20040;-34
2023/05/08 05:57:53;;;;;;;7.53;2.78;;;;;;;21.41;46.00;96499.25;5032439;28;20025;-33
2023/05/08 06:00:20;;;;;;;5.82;2.40;;;;;;;21.44;46.09;96506.53;5039991;28;20027;-33
2023/05/08 06:02:45;;;;;;;5.75;2.72;;;;;;;21.72;45.66;96505.88;5032979;28;20025;-33
2023/05/08 06:05:10;;;;;;;5.25;2.42;;;;;;;21.50;45.93;96510.06;5032701;28;20072;-33
2023/05/08 06:07:37;;;;;;;3.42;2.08;;;;;;;21.37;46.29;96517.31;5036654;28;20025;-33
2023/05/08 06:10:02;;;;;;;7.90;2.42;;;;;;;21.55;46.27;96508.56;5036404;28;20503;-34
2023/05/08 06:12:28;;;;;;;6.03;2.13;;;;;;;21.43;46.53;96520.81;5036582;28;20052;-33
2023/05/08 06:14:54;;;;;;;7.38;2.67;;;;;;;21.60;46.53;96507.84;5036205;28;20024;-33
2023/05/08 06:17:20;;;;;;;3.50;2.17;;;;;;;21.50;46.69;96525.88;5036698;28;20092;-33
2023/05/08 06:19:49;;;;;;;3.97;2.38;;;;;;;21.59;46.71;96519.38;5036597;28;20465;-33
2023/05/08 06:22:17;;;;;;;4.50;2.42;;;;;;;21.64;46.65;96519.38;5036226;28;20032;-33
2023/05/08 06:24:42;;;;;;;4.03;2.92;;;;;;;21.77;46.39;96513.38;5036205;28;20380;-33
2023/05/08 06:27:08;;;;;;;3.67;2.17;;;;;;;21.68;47.02;96514.38;5035929;28;20017;-34
2023/05/08 06:29:33;;;;;;;2.38;2.13;;;;;;;21.74;47.03;96511.66;5036085;28;20032;-33
2023/05/08 06:31:59;;;;;;;3.92;2.30;;;;;;;21.71;47.02;96507.88;5036305;28;20476;-33
2023/05/08 06:34:26;;;;;;;5.45;2.60;;;;;;;21.57;47.11;96506.06;5035983;28;20017;-33
2023/05/08 06:36:51;;;;;;;4.15;2.00;;;;;;;21.70;47.04;96517.41;5035911;28;20037;-33
2023/05/08 06:39:17;;;;;;;3.90;2.33;;;;;;;21.55;48.17;96511.31;5035829;28;20029;-34
2023/05/08 06:41:46;;;;;;;5.68;2.70;;;;;;;21.64;47.91;96519.38;5036056;28;20025;-35
2023/05/08 06:44:12;;;;;;;5.03;2.38;;;;;;;21.81;47.65;96511.16;5035754;28;20033;-33
2023/05/08 06:46:37;;;;;;;4.93;2.25;;;;;;;21.62;48.17;96516.38;5042964;28;20021;-33
2023/05/08 06:49:02;;;;;;;10.55;2.00;;;;;;;21.62;47.57;96515.63;5035885;28;20116;-34
2023/05/08 06:51:28;;;;;;;11.20;3.10;;;;;;;21.73;47.41;96519.16;5035758;28;20029;-33
2023/05/08 06:53:53;;;;;;;5.68;1.90;;;;;;;21.73;47.16;96512.91;5035716;28;20064;-33
2023/05/08 06:56:19;;;;;;;3.90;2.03;;;;;;;21.62;47.42;96510.09;5033673;28;20092;-34
2023/05/08 06:58:44;;;;;;;3.80;1.90;;;;;;;21.63;47.66;96517.13;5038339;28;20037;-34
2023/05/08 07:01:10;;;;;;;3.05;2.00;;;;;;;21.58;46.98;96515.84;5035612;28;20469;-33
2023/05/08 07:03:36;;;;;;;2.38;1.70;;;;;;;21.70;46.36;96511.88;5035966;28;20025;-35
2023/05/08 07:06:01;;;;;;;3.42;1.50;;;;;;;21.77;45.81;96516.91;5038641;28;20033;-34
2023/05/08 07:08:28;;;;;;;3.67;2.08;;;;;;;21.65;46.51;96520.88;5043439;28;20412;-34
2023/05/08 07:10:54;;;;;;;4.93;1.83;;;;;;;21.91;46.32;96517.19;5035507;28;20025;-33
2023/05/08 07:13:20;;;;;;;4.68;2.33;;;;;;;21.63;47.79;96528.94;5035115;28;20112;-33
2023/05/08 07:15:46;;;;;;;2.45;1.80;;;;;;;21.82;47.15;96521.69;5035369;28;20013;-33
2023/05/08 07:18:12;;;;;;;5.95;2.35;;;;;;;21.74;47.63;96523.44;5034337;28;20071;-34
2023/05/08 07:20:37;;;;;;;5.95;2.55;;;;;;;21.69;47.95;96520.66;5035089;28;20013;-33
2023/05/08 07:23:02;;;;;;;2.97;2.05;;;;;;;21.76;47.08;96520.19;5034858;28;20052;-34
2023/05/08 07:25:28;;;;;;;4.38;2.13;;;;;;;21.93;46.72;96528.47;5034936;28;20385;-33
2023/05/08 07:27:53;;;;;;;3.35;1.95;;;;;;;21.56;47.31;96526.63;5035335;28;20469;-33
2023/05/08 07:30:19;;;;;;;6.78;1.73;;;;;;;21.91;46.52;96531.00;5036889;28;20013;-35
2023/05/08 07:32:44;;;;;;;4.30;1.88;;;;;;;21.85;46.46;96540.03;5035781;28;20017;-34
2023/05/08 07:35:11;;;;;;;3.05;2.00;;;;;;;21.71;47.20;96540.25;5034990;28;20461;-34
2023/05/08 07:37:37;;;;;;;5.18;2.10;;;;;;;21.64;48.27;96535.94;5034916;28;20021;-33
2023/05/08 07:40:03;;;;;;;7.32;2.45;;;;;;;21.55;48.79;96530.66;5042253;28;20021;-33
2023/05/08 07:42:29;;;;;;;3.40;2.50;;;;;;;21.61;48.96;96531.44;5035668;28;20116;-34
2023/05/08 07:44:54;;;;;;;3.88;2.60;;;;;;;21.61;49.26;96530.69;5034232;28;20040;-34
2023/05/08 07:47:19;;;;;;;3.60;2.35;;;;;;;21.58;50.02;96528.91;5034892;28;20156;-33
2023/05/08 07:49:45;;;;;;;5.00;2.58;;;;;;;21.56;50.27;96531.41;5034565;28;20060;-33
2023/05/08 07:52:10;;;;;;;3.92;2.40;;;;;;;21.78;49.59;96534.97;5034794;28;20112;-34
2023/05/08 07:54:36;;;;;;;4.00;2.70;;;;;;;21.60;50.00;96532.69;5034307;28;20129;-33
2023/05/08 07:57:01;;;;;;;4.93;2.80;;;;;;;21.67;49.89;96532.19;5034612;28;20167;-33
2023/05/08 07:59:26;;;;;;;5.45;3.40;;;;;;;21.62;50.66;96530.19;5034548;28;20491;-35
2023/05/08 08:01:52;;;;;;;6.40;2.75;;;;;;;21.69;50.32;96540.72;5034225;28;20029;-33
2023/05/08 08:04:17;;;;;;;4.97;2.80;;;;;;;21.51;50.86;96543.94;5034744;28;20029;-33
2023/05/08 08:06:43;;;;;;;6.90;3.10;;;;;;;21.81;50.03;96539.50;5034332;28;20025;-33
2023/05/08 08:09:08;;;;;;;4.72;2.80;;;;;;;21.76;49.91;96542.28;5033269;28;20024;-33
2023/05/08 08:11:33;;;;;;;10.00;3.35;;;;;;;21.83;49.53;96548.06;5034144;28;20025;-33
2023/05/08 08:13:59;;;;;;;5.47;2.92;;;;;;;21.74;49.33;96548.28;5034397;28;20017;-33
2023/05/08 08:16:25;;;;;;;6.75;3.65;;;;;;;21.75;49.05;96557.31;5033849;28;20025;-33
2023/05/08 08:18:51;;;;;;;5.82;2.78;;;;;;;21.74;48.86;96545.53;5033953;28;20048;-33
2023/05/08 08:21:18;;;;;;;4.63;2.47;;;;;;;21.58;47.69;96554.50;5033757;28;20021;-33
2023/05/08 08:23:43;;;;;;;7.65;2.42;;;;;;;21.77;46.08;96555.56;5033829;28;20071;-34
2023/05/08 08:26:09;;;;;;;6.18;2.67;;;;;;;21.69;46.15;96546.25;5034147;28;20439;-34
2023/05/08 08:28:34;;;;;;;5.85;2.47;;;;;;;21.78;45.41;96545.25;5032422;28;20037;-34
2023/05/08 08:31:01;;;;;;;7.38;2.53;;;;;;;21.79;44.72;96546.78;5033840;28;20104;-34
2023/05/08 08:33:28;;;;;;;5.32;2.17;;;;;;;21.82;43.78;96552.06;5033795;28;20029;-33
2023/05/08 08:35:53;;;;;;;4.07;1.90;;;;;;;21.68;42.90;96547.50;5033739;28;20051;-34
2023/05/08 08:38:18;;;;;;;5.68;1.75;;;;;;;21.77;43.06;96550.03;5033933;28;20017;-34
2023/05/08 08:40:44;;;;;;;4.13;1.90;;;;;;;21.80;42.56;96553.81;5033698;28;20075;-33
2023/05/08 08:43:09;;;;;;;3.40;1.90;;;;;;;21.76;43.56;96554.03;5033480;28;20025;-34
2023/05/08 08:45:36;;;;;;;3.88;2.20;;;;;;;21.98;42.76;96552.59;5040005;28;20110;-34
2023/05/08 08:48:02;;;;;;;7.03;2.13;;;;;;;21.92;42.63;96554.59;5034163;28;20032;-33
2023/05/08 08:50:32;;;;;;;2.83;2.03;;;;;;;21.71;43.18;96552.03;5033489;28;20057;-33
2023/05/08 08:53:15;;;;;;;5.45;2.80;;;;;;;21.77;43.05;96554.78;5032660;28;20472;-34
2023/05/08 08:55:45;;;;;;;3.15;2.38;;;;;;;21.73;41.90;96560.56;5033425;28;20075;-33
2023/05/08 08:58:13;;;;;;;3.22;2.40;;;;;;;21.73;41.74;96557.81;5033577;28;20075;-34
2023/05/08 09:00:40;;;;;;;3.42;2.20;;;;;;;21.82;41.95;96557.59;5040349;28;20021;-33
2023/05/08 09:03:06;;;;;;;3.55;2.15;;;;;;;21.84;41.28;96565.38;5033359;28;20036;-34
2023/05/08 09:05:32;;;;;;;4.07;1.75;;;;;;;21.85;41.38;96572.41;5038868;28;20033;-33
2023/05/08 09:07:59;;;;;;;3.75;2.00;;;;;;;21.88;41.58;96570.66;5033567;28;20021;-35
2023/05/08 09:10:24;;;;;;;3.40;2.30;;;;;;;21.68;42.33;96569.59;5033297;28;20022;-34
2023/05/08 09:12:50;;;;;;;3.72;2.15;;;;;;;21.88;40.58;96574.91;5033115;28;20027;-33
2023/05/08 09:15:15;;;;;;;4.20;1.75;;;;;;;22.02;41.56;96575.97;5033358;28;20020;-33
2023/05/08 09:17:41;;;;;;;3.05;2.30;;;;;;;21.87;41.75;96575.44;5032964;28;20465;-33
2023/05/08 09:20:07;;;;;;;1.65;1.40;;;;;;;21.77;41.22;96574.88;5033003;28;20021;-34
2023/05/08 09:22:36;;;;;;;2.17;1.58;;;;;;;21.88;41.03;96579.69;5033228;28;20025;-34
2023/05/08 09:25:02;;;;;;;2.47;1.35;;;;;;;21.72;41.05;96583.91;5032894;28;20025;-33
2023/05/08 09:27:29;;;;;;;2.92;1.55;;;;;;;21.82;40.99;96579.66;5033724;28;20056;-34
2023/05/08 09:30:11;;;;;;;4.38;1.30;;;;;;;21.63;41.44;96584.13;5032807;28;20040;-33
2023/05/08 09:32:42;;;;;;;2.28;1.27;;;;;;;21.75;42.31;96580.16;5033112;28;20105;-34
2023/05/08 09:35:08;;;;;;;2.80;1.30;;;;;;;21.76;41.87;96583.69;5032769;28;20013;-34
2023/05/08 09:37:41;;;;;;;3.22;1.65;;;;;;;21.92;42.05;96594.00;5034054;28;20033;-34
2023/05/08 09:40:21;;;;;;;2.55;2.15;;;;;;;21.70;41.02;96589.16;5033208;28;20186;-33
2023/05/08 09:42:47;;;;;;;2.80;1.50;;;;;;;21.84;41.09;96593.72;5037180;28;20543;-36
2023/05/08 09:45:34;;;;;;;4.00;1.33;;;;;;;21.75;41.83;96598.72;5040473;28;20132;-33
2023/05/08 09:47:59;;;;;;;1.80;1.25;;;;;;;21.88;41.73;96594.22;5037281;28;20042;-33
2023/05/08 09:50:25;;;;;;;2.67;1.60;;;;;;;21.72;40.63;96591.44;5036929;28;20028;-34
2023/05/08 09:52:50;;;;;;;8.98;4.65;;;;;;;21.83;40.39;96594.97;5036952;28;20099;-34
2023/05/08 09:55:16;;;;;;;9.30;5.50;;;;;;;21.77;40.77;96596.97;5036247;28;20125;-33
2023/05/08 09:58:00;;;;;;;7.50;4.13;;;;;;;21.56;41.48;96601.16;5037121;28;20037;-33
2023/05/08 10:00:27;;;;;;;6.07;2.95;;;;;;;21.91;41.00;96597.25;5043867;28;20028;-34
2023/05/08 10:02:59;;;;;;;3.70;2.80;;;;;;;21.75;41.61;96601.50;5036933;28;20063;-33
2023/05/08 10:05:30;;;;;;;4.10;2.58;;;;;;;22.13;40.92;96600.13;5036351;28;20112;-34
2023/05/08 10:08:16;;;;;;;5.28;2.35;;;;;;;21.87;40.96;96597.50;5036605;28;20025;-33
2023/05/08 10:10:42;;;;;;;2.60;1.70;;;;;;;21.92;40.39;96594.00;5036747;28;20025;-33
2023/05/08 10:13:07;;;;;;;3.42;1.92;;;;;;;21.82;40.63;96595.47;5036176;28;20104;-34
2023/05/08 10:15:35;;;;;;;4.65;1.80;;;;;;;21.92;40.88;96593.25;5036299;28;20120;-34
2023/05/08 10:18:05;;;;;;;2.42;1.60;;;;;;;21.68;40.71;96597.19;5036124;28;20443;-33
2023/05/08 10:20:33;;;;;;;3.78;1.75;;;;;;;21.62;39.98;96596.41;5036480;28;20112;-33
2023/05/08 10:23:00;;;;;;;5.68;1.80;;;;;;;21.73;40.46;96598.47;5036067;28;20022;-33
2023/05/08 10:25:31;;;;;;;3.53;1.60;;;;;;;21.93;40.34;96594.75;5036263;28;20037;-34
2023/05/08 10:28:10;;;;;;;2.80;1.60;;;;;;;21.88;40.27;96590.00;5036539;28;20068;-33
2023/05/08 10:30:41;;;;;;;5.75;2.55;;;;;;;21.48;40.66;96589.06;5036267;28;20025;-34
2023/05/08 10:33:09;;;;;;;3.08;2.05;;;;;;;21.69;40.18;96587.66;5035984;28;20099;-33
2023/05/08 10:35:36;;;;;;;2.92;1.98;;;;;;;21.48;40.40;96591.84;5035881;28;20025;-33
2023/05/08 10:38:03;;;;;;;3.67;1.67;;;;;;;21.74;40.09;96591.69;5036002;28;20033;-33
2023/05/08 10:40:29;;;;;;;4.40;1.67;;;;;;;21.68;40.77;96590.91;5035970;28;20043;-33
2023/05/08 10:42:55;;;;;;;2.40;1.45;;;;;;;21.77;40.10;96596.97;5036064;28;20022;-34
2023/05/08 10:45:21;;;;;;;2.67;1.50;;;;;;;21.59;39.35;96602.91;5036172;28;20359;-34
2023/05/08 10:48:18;;;;;;;2.38;1.23;;;;;;;21.65;39.82;96595.41;5035800;28;20112;-34
2023/05/08 10:51:01;;;;;;;3.33;1.40;;;;;;;21.75;40.51;96607.00;5044893;28;20108;-35
2023/05/08 10:53:37;;;;;;;2.67;1.35;;;;;;;21.90;40.34;96602.03;5034402;28;20030;-34
2023/05/08 10:56:03;;;;;;;5.25;1.65;;;;;;;21.84;40.92;96599.25;5035468;28;20120;-34
2023/05/08 10:58:31;;;;;;;1.90;1.50;;;;;;;21.75;41.76;96607.75;5035357;28;20083;-33
2023/05/08 11:00:59;;;;;;;1.95;1.48;;;;;;;21.84;42.34;96615.81;5043926;28;20524;-34
2023/05/08 11:03:26;;;;;;;2.63;1.42;;;;;;;21.70;42.76;96608.50;5042572;28;20038;-34
2023/05/08 11:05:53;;;;;;;2.10;1.42;;;;;;;21.78;42.71;96606.75;5035558;28;20042;-33
2023/05/08 11:08:23;;;;;;;2.63;1.70;;;;;;;21.44;44.03;96610.63;5035165;28;20040;-34
2023/05/08 11:11:00;;;;;;;2.53;1.60;;;;;;;21.70;43.29;96608.50;5035495;28;20488;-34
2023/05/08 11:13:51;;;;;;;4.05;1.85;;;;;;;21.49;43.41;96618.94;5034030;28;20087;-34
2023/05/08 11:16:17;;;;;;;3.58;1.40;;;;;;;21.79;43.14;96607.50;5035305;28;20016;-33
2023/05/08 11:19:15;;;;;;;2.28;1.60;;;;;;;21.74;43.11;96609.00;5035540;28;20432;-34
2023/05/08 11:22:21;;;;;;;2.13;1.75;;;;;;;21.68;43.30;96607.47;5035580;28;20037;-33
2023/05/08 11:24:48;;;;;;;5.65;1.77;;;;;;;21.65;43.38;96611.97;5042407;28;20030;-34
2023/05/08 11:27:14;;;;;;;4.88;2.13;;;;;;;21.62;43.53;96609.47;5035457;28;20032;-33
2023/05/08 11:29:40;;;;;;;2.75;1.73;;;;;;;21.63;43.99;96611.72;5035002;28;20029;-33
2023/05/08 11:32:06;;;;;;;3.10;1.55;;;;;;;21.81;43.74;96605.00;5037044;28;20420;-33
2023/05/08 11:34:48;;;;;;;5.10;1.70;;;;;;;21.75;44.01;96605.00;5037898;28;20025;-34
2023/05/08 11:37:20;;;;;;;3.17;1.52;;;;;;;21.77;44.44;96601.72;5034997;28;20381;-34
2023/05/08 11:39:49;;;;;;;2.47;1.93;;;;;;;21.47;45.27;96601.38;5034736;28;20028;-33
2023/05/08 11:42:23;;;;;;;2.78;1.75;;;;;;;21.54;45.08;96603.63;5033460;28;20682;-33